Time;durP1;ratioP1;P1;durP2;ratioP2;P2;SDS_P1;SDS_P2;PMS_P1;PMS_P2;Temp;Humidity;BMP_temperature;BMP_pressure;BME280_temperature;BME280_humidity;BME280_pressure;Samples;Min_cycle;Max_cycle;Signal;HPM_P1;HPM_P2
2021/07/24 00:01:56;;;;;;;18.42;8.52;;;18.10;74.20;;;;;;5053147;28;20025;-36
2021/07/24 00:04:22;;;;;;;12.10;7.63;;;18.00;74.40;;;;;;5053276;28;20029;-36
2021/07/24 00:06:47;;;;;;;10.68;8.15;;;17.90;74.60;;;;;;5053059;28;20079;-36
2021/07/24 00:09:14;;;;;;;14.02;8.32;;;17.80;75.00;;;;;;5053081;28;20033;-36
2021/07/24 00:11:39;;;;;;;11.13;8.27;;;17.90;75.10;;;;;;5051746;28;20029;-36
2021/07/24 00:14:06;;;;;;;15.73;8.07;;;17.80;74.90;;;;;;5052870;28;20025;-36
2021/07/24 00:16:31;;;;;;;12.23;7.63;;;17.80;75.30;;;;;;5053248;28;20429;-36
2021/07/24 00:18:57;;;;;;;10.98;7.78;;;17.70;75.40;;;;;;5052637;28;20060;-37
2021/07/24 00:21:22;;;;;;;10.27;7.60;;;17.80;75.40;;;;;;5053085;28;20024;-36
2021/07/24 00:23:48;;;;;;;13.30;8.00;;;17.70;75.80;;;;;;5053096;28;20051;-37
2021/07/24 00:26:14;;;;;;;13.18;8.07;;;17.60;76.00;;;;;;5053102;28;20025;-36
2021/07/24 00:28:41;;;;;;;12.57;7.68;;;17.70;75.80;;;;;;5053118;28;20388;-37
2021/07/24 00:31:07;;;;;;;13.98;7.85;;;17.60;76.00;;;;;;5051836;28;20029;-37
2021/07/24 00:33:33;;;;;;;13.05;7.30;;;17.60;76.00;;;;;;5052827;28;20353;-36
2021/07/24 00:35:58;;;;;;;11.20;7.72;;;17.60;76.10;;;;;;5052794;28;20037;-37
2021/07/24 00:38:27;;;;;;;11.40;7.57;;;17.50;76.30;;;;;;5051452;28;20507;-37
2021/07/24 00:40:56;;;;;;;12.35;8.75;;;17.40;76.50;;;;;;5052781;28;20025;-37
2021/07/24 00:43:29;;;;;;;12.40;9.20;;;17.50;76.50;;;;;;5052700;28;20101;-37
2021/07/24 00:45:56;;;;;;;12.73;8.45;;;17.50;76.50;;;;;;5052969;28;20090;-36
2021/07/24 00:48:23;;;;;;;15.43;8.05;;;17.40;76.70;;;;;;5053024;28;20381;-37
2021/07/24 00:50:51;;;;;;;12.05;8.10;;;17.40;76.90;;;;;;5052682;28;20025;-37
2021/07/24 00:53:34;;;;;;;13.40;8.77;;;17.30;76.90;;;;;;5051400;28;20025;-37
2021/07/24 00:56:00;;;;;;;11.20;7.93;;;17.30;77.00;;;;;;5052984;28;20035;-37
2021/07/24 00:58:31;;;;;;;14.15;8.70;;;17.30;77.30;;;;;;5051220;28;20435;-37
2021/07/24 01:00:59;;;;;;;13.50;8.77;;;17.30;77.60;;;;;;5052087;28;20017;-37
2021/07/24 01:03:25;;;;;;;10.75;8.40;;;17.30;77.20;;;;;;5052465;28;20045;-37
2021/07/24 01:05:56;;;;;;;13.75;8.25;;;17.30;77.30;;;;;;5052575;28;20500;-37
2021/07/24 01:08:23;;;;;;;20.08;8.73;;;17.30;77.60;;;;;;5052786;28;20469;-37
2021/07/24 01:10:50;;;;;;;14.20;8.75;;;17.30;77.70;;;;;;5052780;28;20032;-36
2021/07/24 01:13:17;;;;;;;12.90;8.40;;;17.20;77.80;;;;;;5052732;28;20075;-36
2021/07/24 01:15:50;;;;;;;11.85;8.60;;;17.20;77.70;;;;;;5052475;28;20036;-36
2021/07/24 01:18:16;;;;;;;13.48;9.00;;;17.20;77.80;;;;;;5052142;28;20528;-37
2021/07/24 01:20:43;;;;;;;16.13;9.25;;;17.10;78.10;;;;;;5051088;28;20040;-36
2021/07/24 01:23:10;;;;;;;11.18;8.55;;;17.10;77.90;;;;;;5052405;28;20036;-37
2021/07/24 01:26:05;;;;;;;12.18;9.13;;;17.00;78.40;;;;;;5052491;28;20021;-36
2021/07/24 01:28:34;;;;;;;16.23;9.85;;;17.00;78.70;;;;;;5055918;28;20043;-36
2021/07/24 01:31:03;;;;;;;17.73;9.48;;;17.00;78.60;;;;;;5056058;28;20043;-36
2021/07/24 01:33:29;;;;;;;15.63;9.38;;;17.00;78.40;;;;;;5056277;28;20033;-37
2021/07/24 01:35:54;;;;;;;13.27;8.95;;;17.00;78.50;;;;;;5055933;28;20025;-36
2021/07/24 01:38:21;;;;;;;14.45;8.43;;;17.00;78.70;;;;;;5056093;28;20025;-36
2021/07/24 01:40:47;;;;;;;15.35;9.68;;;16.90;79.00;;;;;;5056130;28;20037;-36
2021/07/24 01:43:13;;;;;;;14.32;8.52;;;16.90;78.90;;;;;;5055763;28;20531;-35
2021/07/24 01:45:40;;;;;;;16.88;9.48;;;16.80;79.20;;;;;;5056170;28;20028;-36
2021/07/24 01:48:29;;;;;;;19.05;9.75;;;16.80;79.50;;;;;;5055638;28;20043;-36
2021/07/24 01:53:39;;;;;;;14.90;9.15;;;16.80;79.50;;;;;;5055496;28;20047;-35
2021/07/24 01:56:09;;;;;;;16.95;9.55;;;16.70;79.80;;;;;;5055505;28;20025;-36
2021/07/24 01:58:36;;;;;;;12.60;8.82;;;16.70;79.90;;;;;;5056174;28;20064;-38
2021/07/24 02:01:04;;;;;;;15.05;9.13;;;16.70;79.90;;;;;;5055443;28;20334;-36
2021/07/24 02:03:38;;;;;;;13.30;8.88;;;16.60;79.90;;;;;;5055609;28;20013;-36
2021/07/24 02:06:05;;;;;;;13.88;8.60;;;16.70;80.00;;;;;;5054806;28;20043;-36
2021/07/24 02:08:32;;;;;;;12.25;9.52;;;16.70;79.90;;;;;;5055333;28;20032;-37
2021/07/24 02:11:04;;;;;;;13.25;8.55;;;16.80;80.00;;;;;;5055456;28;20025;-36
2021/07/24 02:13:30;;;;;;;15.68;8.57;;;16.80;79.50;;;;;;5054235;28;20074;-36
2021/07/24 02:15:56;;;;;;;17.95;8.85;;;16.70;79.90;;;;;;5055460;28;20029;-36
2021/07/24 02:18:23;;;;;;;12.30;9.73;;;16.80;79.70;;;;;;5054768;28;20517;-36
2021/07/24 02:20:49;;;;;;;13.70;9.95;;;16.70;79.90;;;;;;5055109;28;20025;-36
2021/07/24 02:23:16;;;;;;;16.15;9.05;;;16.70;79.90;;;;;;5055248;28;20060;-36
2021/07/24 02:25:43;;;;;;;13.70;9.23;;;16.70;80.00;;;;;;5054965;28;20100;-36
2021/07/24 02:28:09;;;;;;;14.48;9.40;;;16.60;80.40;;;;;;5053746;28;20465;-36
2021/07/24 02:30:34;;;;;;;16.85;9.95;;;16.60;80.30;;;;;;5055084;28;20028;-36
2021/07/24 02:33:00;;;;;;;17.92;10.15;;;16.40;80.70;;;;;;5054848;28;20054;-36
2021/07/24 02:35:26;;;;;;;14.48;9.80;;;16.50;80.90;;;;;;5054744;28;20051;-36
2021/07/24 02:37:52;;;;;;;13.13;9.15;;;16.40;81.00;;;;;;5054731;28;20021;-36
2021/07/24 02:40:17;;;;;;;20.88;10.23;;;16.40;81.20;;;;;;5054575;28;20028;-36
2021/07/24 02:42:43;;;;;;;12.55;10.20;;;16.40;81.10;;;;;;5054617;28;20066;-36
2021/07/24 02:45:10;;;;;;;12.57;9.13;;;16.40;80.90;;;;;;5053614;28;20374;-36
2021/07/24 02:47:36;;;;;;;16.30;9.93;;;16.30;81.30;;;;;;5054791;28;20029;-36
2021/07/24 02:50:02;;;;;;;14.68;9.48;;;16.50;80.70;;;;;;5054471;28;20469;-36
2021/07/24 02:52:27;;;;;;;14.75;9.73;;;16.40;80.80;;;;;;5054391;28;20033;-36
2021/07/24 02:54:53;;;;;;;18.73;10.85;;;16.30;81.20;;;;;;5054416;28;20051;-36
2021/07/24 02:57:19;;;;;;;15.68;10.63;;;16.30;81.50;;;;;;5054328;28;20467;-36
2021/07/24 02:59:45;;;;;;;14.25;10.50;;;16.30;81.20;;;;;;5053480;28;20033;-37
2021/07/24 03:02:12;;;;;;;16.70;10.80;;;16.40;81.50;;;;;;5054200;28;20021;-36
2021/07/24 03:04:38;;;;;;;14.75;10.02;;;16.40;81.00;;;;;;5054173;28;20104;-37
2021/07/24 03:07:04;;;;;;;17.58;10.57;;;16.20;81.70;;;;;;5054391;28;20048;-37
2021/07/24 03:09:29;;;;;;;16.52;10.45;;;16.10;82.10;;;;;;5054037;28;20029;-37
2021/07/24 03:11:55;;;;;;;16.10;9.82;;;16.00;82.50;;;;;;5054263;28;20025;-36
2021/07/24 03:14:21;;;;;;;20.65;10.88;;;16.10;82.60;;;;;;5054292;28;20032;-37
2021/07/24 03:16:46;;;;;;;19.30;10.30;;;16.00;82.50;;;;;;5053944;28;20109;-37
2021/07/24 03:19:12;;;;;;;17.95;11.40;;;16.00;82.80;;;;;;5052290;28;20068;-37
2021/07/24 03:21:37;;;;;;;15.13;10.73;;;16.10;82.50;;;;;;5054121;28;20025;-37
2021/07/24 03:24:03;;;;;;;15.65;10.27;;;16.00;82.60;;;;;;5053842;28;20362;-36
2021/07/24 03:26:29;;;;;;;13.65;10.38;;;16.00;82.70;;;;;;5053835;28;20071;-37
2021/07/24 03:28:54;;;;;;;19.20;10.43;;;16.00;82.90;;;;;;5053727;28;20056;-36
2021/07/24 03:31:20;;;;;;;21.55;11.27;;;16.10;82.50;;;;;;5053690;28;20029;-37
2021/07/24 03:33:45;;;;;;;15.77;10.35;;;16.10;82.20;;;;;;5053636;28;20021;-37
2021/07/24 03:36:11;;;;;;;14.57;10.27;;;16.00;82.60;;;;;;5053817;28;20025;-37
2021/07/24 03:38:37;;;;;;;21.25;9.40;;;16.10;82.30;;;;;;5053565;28;20056;-37
2021/07/24 03:41:04;;;;;;;18.13;10.98;;;16.20;82.20;;;;;;5053748;28;20051;-36
2021/07/24 03:43:30;;;;;;;17.35;10.02;;;16.20;82.30;;;;;;5053727;28;20032;-36
2021/07/24 03:45:56;;;;;;;13.05;9.65;;;16.20;81.90;;;;;;5053587;28;20020;-36
2021/07/24 03:48:21;;;;;;;19.75;10.23;;;16.20;82.20;;;;;;5053416;28;20060;-36
2021/07/24 03:50:47;;;;;;;17.70;10.65;;;16.20;82.20;;;;;;5053502;28;20381;-37
2021/07/24 03:53:13;;;;;;;15.75;11.10;;;16.20;82.30;;;;;;5053338;28;20036;-36
2021/07/24 03:55:39;;;;;;;20.30;11.38;;;16.30;81.80;;;;;;5053798;28;20020;-36
2021/07/24 03:58:04;;;;;;;14.98;10.20;;;16.30;82.00;;;;;;5053550;28;20100;-36
2021/07/24 04:00:37;;;;;;;15.73;10.50;;;16.20;82.20;;;;;;5053193;28;20029;-36
2021/07/24 04:03:03;;;;;;;16.73;9.98;;;16.10;82.30;;;;;;5053738;28;20079;-36
2021/07/24 04:05:39;;;;;;;13.77;9.75;;;16.10;82.30;;;;;;5053373;28;20025;-36
2021/07/24 04:08:06;;;;;;;19.77;11.07;;;16.10;82.50;;;;;;5053437;28;20050;-36
2021/07/24 04:10:33;;;;;;;15.82;11.02;;;16.20;82.20;;;;;;5053356;28;20037;-36
2021/07/24 04:13:01;;;;;;;15.35;10.65;;;16.30;82.00;;;;;;5053377;28;20468;-36
2021/07/24 04:15:26;;;;;;;18.58;11.52;;;16.20;82.00;;;;;;5053017;28;20366;-36
2021/07/24 04:17:52;;;;;;;18.38;10.40;;;16.20;82.00;;;;;;5052870;28;20032;-36
2021/07/24 04:20:21;;;;;;;15.82;10.52;;;16.20;82.20;;;;;;5053105;28;20064;-37
2021/07/24 04:22:47;;;;;;;16.95;9.98;;;16.30;81.80;;;;;;5053237;28;20365;-36
2021/07/24 04:25:13;;;;;;;15.02;10.02;;;16.30;81.60;;;;;;5052954;28;20032;-36
2021/07/24 04:27:40;;;;;;;15.25;10.23;;;16.20;82.10;;;;;;5052928;28;20017;-36
2021/07/24 04:30:06;;;;;;;15.32;9.75;;;16.10;82.10;;;;;;5052839;28;20082;-37
2021/07/24 04:32:32;;;;;;;17.00;10.57;;;16.10;82.20;;;;;;5053123;28;20028;-36
2021/07/24 04:34:58;;;;;;;14.25;9.43;;;16.20;82.40;;;;;;5051917;28;20108;-36
2021/07/24 04:37:23;;;;;;;15.55;10.40;;;16.20;82.20;;;;;;5052787;28;20025;-36
2021/07/24 04:39:49;;;;;;;14.95;9.25;;;16.10;82.40;;;;;;5052785;28;20071;-36
2021/07/24 04:42:14;;;;;;;13.38;9.93;;;16.10;82.40;;;;;;5053361;28;20408;-36
2021/07/24 04:44:40;;;;;;;14.23;9.80;;;16.10;82.40;;;;;;5052827;28;20025;-37
2021/07/24 04:47:06;;;;;;;14.70;10.23;;;16.30;81.90;;;;;;5052859;28;20018;-36
2021/07/24 04:49:32;;;;;;;14.18;9.85;;;16.30;81.70;;;;;;5052815;28;20036;-36
2021/07/24 04:51:59;;;;;;;17.73;10.55;;;16.30;81.30;;;;;;5053090;28;20029;-36
2021/07/24 04:54:25;;;;;;;22.52;10.82;;;16.30;81.60;;;;;;5052820;28;20032;-36
2021/07/24 04:56:51;;;;;;;14.93;9.77;;;16.40;81.30;;;;;;5052699;28;20025;-36
2021/07/24 04:59:17;;;;;;;12.23;9.43;;;16.50;81.00;;;;;;5053126;28;20032;-36
2021/07/24 05:01:43;;;;;;;14.60;9.57;;;16.80;80.10;;;;;;5054889;28;20477;-37
2021/07/24 05:04:10;;;;;;;13.90;9.57;;;16.90;79.70;;;;;;5056724;28;20106;-37
2021/07/24 05:06:36;;;;;;;14.65;9.55;;;17.00;79.10;;;;;;5056645;28;20041;-37
2021/07/24 05:09:08;;;;;;;15.07;10.73;;;17.10;78.50;;;;;;5055089;28;20061;-38
2021/07/24 05:11:35;;;;;;;15.85;9.90;;;17.20;78.20;;;;;;5055080;28;20025;-36
2021/07/24 05:14:01;;;;;;;16.10;10.23;;;17.20;78.20;;;;;;5056507;28;20467;-37
2021/07/24 05:16:26;;;;;;;13.02;9.73;;;17.30;78.20;;;;;;5056302;28;20137;-37
2021/07/24 05:18:52;;;;;;;15.43;10.13;;;17.20;78.50;;;;;;5055600;28;20517;-36
2021/07/24 05:21:18;;;;;;;14.98;10.60;;;17.20;78.60;;;;;;5055688;28;20065;-36
2021/07/24 05:23:44;;;;;;;14.52;9.68;;;17.10;78.60;;;;;;5055823;28;20013;-36
2021/07/24 05:26:14;;;;;;;16.00;10.68;;;17.10;78.80;;;;;;5055685;28;20075;-37
2021/07/24 05:28:40;;;;;;;12.95;9.50;;;16.90;79.30;;;;;;5055818;28;20504;-36
2021/07/24 05:31:17;;;;;;;16.80;9.35;;;17.10;79.50;;;;;;5055946;28;20052;-36
2021/07/24 05:33:42;;;;;;;14.10;10.00;;;17.10;79.10;;;;;;5055639;28;20051;-37
2021/07/24 05:36:08;;;;;;;15.68;10.40;;;17.30;78.60;;;;;;5055558;28;20029;-36
2021/07/24 05:38:34;;;;;;;13.90;9.32;;;17.30;78.30;;;;;;5055410;28;20638;-36
2021/07/24 05:41:03;;;;;;;13.52;9.52;;;17.30;78.30;;;;;;5055666;28;20021;-36
2021/07/24 05:43:28;;;;;;;16.63;9.80;;;17.30;78.20;;;;;;5055645;28;20025;-36
2021/07/24 05:45:54;;;;;;;14.15;9.35;;;17.40;78.10;;;;;;5055582;28;20090;-36
2021/07/24 05:48:20;;;;;;;14.18;9.35;;;17.70;77.30;;;;;;5055224;28;20036;-36
2021/07/24 05:50:45;;;;;;;15.98;9.52;;;17.70;77.20;;;;;;5055145;28;20033;-36
2021/07/24 05:53:11;;;;;;;14.82;10.25;;;17.60;77.80;;;;;;5055111;28;20025;-36
2021/07/24 05:55:38;;;;;;;14.57;9.68;;;17.70;77.30;;;;;;5055136;28;20488;-37
2021/07/24 05:58:07;;;;;;;17.15;9.65;;;17.80;77.10;;;;;;5054954;28;20071;-36
2021/07/24 06:00:32;;;;;;;13.70;10.23;;;17.80;77.10;;;;;;5054987;28;20431;-36
2021/07/24 06:02:58;;;;;;;14.40;9.32;;;17.90;76.50;;;;;;5053722;28;20089;-36
2021/07/24 06:05:24;;;;;;;13.70;9.95;;;18.00;76.20;;;;;;5054834;28;20212;-37
2021/07/24 06:07:50;;;;;;;16.75;9.38;;;18.00;76.20;;;;;;5055322;28;20513;-36
2021/07/24 06:10:16;;;;;;;13.98;9.50;;;18.30;75.50;;;;;;5055475;28;20103;-36
2021/07/24 06:12:45;;;;;;;13.55;10.07;;;18.50;74.70;;;;;;5054808;28;20040;-36
2021/07/24 06:15:11;;;;;;;14.07;10.40;;;18.70;74.10;;;;;;5055028;28;20025;-36
2021/07/24 06:17:36;;;;;;;14.63;9.20;;;18.90;73.00;;;;;;5055283;28;20043;-37
2021/07/24 06:20:03;;;;;;;14.93;9.57;;;19.10;72.80;;;;;;5054837;28;20028;-36
2021/07/24 06:22:28;;;;;;;12.52;8.98;;;19.00;72.90;;;;;;5054890;28;20025;-37
2021/07/24 06:24:54;;;;;;;14.90;9.05;;;19.20;72.50;;;;;;5055434;28;20478;-37
2021/07/24 06:27:19;;;;;;;20.58;11.43;;;19.10;72.60;;;;;;5055153;28;20073;-36
2021/07/24 06:29:45;;;;;;;13.55;9.82;;;18.90;73.40;;;;;;5054860;28;20408;-37
2021/07/24 06:32:10;;;;;;;12.18;8.77;;;19.00;73.50;;;;;;5054743;28;20033;-36
2021/07/24 06:34:36;;;;;;;16.40;10.05;;;19.30;72.90;;;;;;5054967;28;20544;-36
2021/07/24 06:37:02;;;;;;;12.43;9.85;;;19.30;72.10;;;;;;5054497;28;20029;-35
2021/07/24 06:39:28;;;;;;;14.18;9.95;;;19.30;72.20;;;;;;5054727;28;20036;-36
2021/07/24 06:41:53;;;;;;;13.35;9.75;;;19.30;72.30;;;;;;5054832;28;20021;-36
2021/07/24 06:44:20;;;;;;;14.77;9.75;;;19.30;72.70;;;;;;5054454;28;20021;-36
2021/07/24 06:46:46;;;;;;;16.83;10.55;;;19.60;71.60;;;;;;5054393;28;20028;-36
2021/07/24 06:49:11;;;;;;;16.13;9.88;;;19.80;70.70;;;;;;5054488;28;20028;-36
2021/07/24 06:51:37;;;;;;;14.95;9.55;;;19.80;70.20;;;;;;5053789;28;20055;-37
2021/07/24 06:54:03;;;;;;;17.65;9.45;;;20.00;70.40;;;;;;5054106;28;20330;-36
2021/07/24 06:56:28;;;;;;;11.88;9.23;;;20.30;69.70;;;;;;5054306;28;20086;-36
2021/07/24 06:58:54;;;;;;;14.60;9.23;;;20.60;68.40;;;;;;5053991;28;20033;-36
2021/07/24 07:01:19;;;;;;;12.80;9.43;;;20.30;68.90;;;;;;5054353;28;20475;-36
2021/07/24 07:03:45;;;;;;;16.35;9.75;;;20.20;69.10;;;;;;5054172;28;20048;-36
2021/07/24 07:06:13;;;;;;;16.02;11.13;;;20.30;69.20;;;;;;5054090;28;20025;-36
2021/07/24 07:08:39;;;;;;;11.98;9.70;;;20.60;68.00;;;;;;5054446;28;20111;-36
2021/07/24 07:11:05;;;;;;;14.90;9.23;;;20.80;67.70;;;;;;5053630;28;20526;-36
2021/07/24 07:13:31;;;;;;;17.65;10.38;;;20.90;66.90;;;;;;5053625;28;20029;-37
2021/07/24 07:15:57;;;;;;;21.58;11.35;;;20.80;67.20;;;;;;5053785;28;20033;-36
2021/07/24 07:18:23;;;;;;;11.90;8.90;;;20.90;67.10;;;;;;5053222;28;20049;-36
2021/07/24 07:20:50;;;;;;;11.77;8.00;;;21.00;66.60;;;;;;5053477;28;20039;-37
2021/07/24 07:23:15;;;;;;;14.80;8.88;;;21.00;66.70;;;;;;5053033;28;20571;-36
2021/07/24 07:25:41;;;;;;;13.82;9.27;;;21.00;66.90;;;;;;5053132;28;20092;-36
2021/07/24 07:28:09;;;;;;;19.23;8.43;;;21.10;67.30;;;;;;5053223;28;20043;-36
2021/07/24 07:30:34;;;;;;;11.93;8.15;;;21.30;66.80;;;;;;5051819;28;20029;-36
2021/07/24 07:33:00;;;;;;;12.32;7.97;;;21.30;66.20;;;;;;5052962;28;20021;-36
2021/07/24 07:35:25;;;;;;;13.05;8.35;;;21.30;66.10;;;;;;5053024;28;20358;-36
2021/07/24 07:37:54;;;;;;;11.45;7.53;;;21.30;66.00;;;;;;5051956;28;20108;-37
2021/07/24 07:40:21;;;;;;;14.73;7.97;;;21.50;65.30;;;;;;5053213;28;20063;-36
2021/07/24 07:42:47;;;;;;;11.95;7.78;;;21.30;66.00;;;;;;5053189;28;20025;-37
2021/07/24 07:45:12;;;;;;;10.50;8.13;;;21.60;65.90;;;;;;5052740;28;20029;-36
2021/07/24 07:47:38;;;;;;;11.00;8.10;;;21.80;64.70;;;;;;5053491;28;20017;-36
2021/07/24 07:50:05;;;;;;;12.82;8.65;;;22.10;64.10;;;;;;5052864;28;20077;-36
2021/07/24 07:52:31;;;;;;;17.63;8.13;;;22.30;63.60;;;;;;5051259;28;20451;-36
2021/07/24 07:54:58;;;;;;;12.52;7.25;;;22.30;63.50;;;;;;5051531;28;20029;-36
2021/07/24 07:57:25;;;;;;;13.50;8.63;;;22.20;64.10;;;;;;5052865;28;20396;-36
2021/07/24 07:59:51;;;;;;;14.40;8.18;;;21.80;64.40;;;;;;5051387;28;20028;-36
2021/07/24 08:02:16;;;;;;;12.40;8.38;;;21.80;65.60;;;;;;5053396;28;20196;-36
2021/07/24 08:04:42;;;;;;;11.93;8.27;;;21.90;65.50;;;;;;5052766;28;20508;-37
2021/07/24 08:07:08;;;;;;;14.63;7.65;;;22.30;64.20;;;;;;5052952;28;20028;-36
2021/07/24 08:09:33;;;;;;;10.70;7.80;;;22.70;63.10;;;;;;5052882;28;20457;-36
2021/07/24 08:11:59;;;;;;;11.57;7.60;;;22.60;62.80;;;;;;5052803;28;20086;-36
2021/07/24 08:14:24;;;;;;;14.20;8.30;;;22.20;63.70;;;;;;5052508;28;20168;-36
2021/07/24 08:16:50;;;;;;;11.38;7.43;;;22.20;64.20;;;;;;5052056;28;20072;-36
2021/07/24 08:19:16;;;;;;;13.85;7.57;;;22.20;64.40;;;;;;5052195;28;20081;-36
2021/07/24 08:21:41;;;;;;;11.80;7.78;;;22.00;65.10;;;;;;5051122;28;20017;-37
2021/07/24 08:24:07;;;;;;;11.70;8.35;;;22.20;64.60;;;;;;5053027;28;20096;-37
2021/07/24 08:26:33;;;;;;;14.60;7.57;;;22.10;64.40;;;;;;5052585;28;20473;-36
2021/07/24 08:28:59;;;;;;;15.40;9.23;;;22.30;64.70;;;;;;5052671;28;20036;-38
2021/07/24 08:31:24;;;;;;;10.43;7.95;;;22.30;64.00;;;;;;5052550;28;20040;-36
2021/07/24 08:33:50;;;;;;;14.75;8.55;;;22.80;63.00;;;;;;5053100;28;20493;-36
2021/07/24 08:36:16;;;;;;;14.48;10.52;;;23.30;61.30;;;;;;5055727;28;20020;-37
2021/07/24 08:38:42;;;;;;;14.82;7.88;;;23.50;60.90;;;;;;5055303;28;20448;-37
2021/07/24 08:41:13;;;;;;;12.60;7.68;;;24.30;58.20;;;;;;5057122;28;20017;-37
2021/07/24 08:43:39;;;;;;;12.00;9.35;;;25.30;55.30;;;;;;5057089;28;20029;-37
2021/07/24 08:46:05;;;;;;;12.55;8.95;;;25.50;54.50;;;;;;5056518;28;20218;-38
2021/07/24 08:48:31;;;;;;;13.70;8.15;;;26.00;52.80;;;;;;5056373;28;20028;-37
2021/07/24 08:50:59;;;;;;;12.15;7.82;;;26.30;52.20;;;;;;5056667;28;20369;-37
2021/07/24 08:53:28;;;;;;;10.23;7.55;;;26.00;52.80;;;;;;5056203;28;20056;-37
2021/07/24 08:56:01;;;;;;;8.25;6.65;;;26.00;52.90;;;;;;5056282;28;20017;-37
2021/07/24 08:58:28;;;;;;;21.17;7.00;;;26.20;52.50;;;;;;5056705;28;20143;-37
2021/07/24 09:00:54;;;;;;;14.25;8.20;;;26.80;51.70;;;;;;5054539;28;20109;-37
2021/07/24 09:03:23;;;;;;;9.45;7.00;;;26.50;51.90;;;;;;5056012;28;20112;-38
2021/07/24 09:05:52;;;;;;;13.45;7.70;;;26.60;51.80;;;;;;5056220;28;20025;-36
2021/07/24 09:08:18;;;;;;;8.50;7.57;;;26.60;51.60;;;;;;5056340;28;20021;-37
2021/07/24 09:10:47;;;;;;;10.32;7.15;;;26.50;52.30;;;;;;5056146;28;20032;-37
2021/07/24 09:13:15;;;;;;;9.43;7.47;;;26.40;52.40;;;;;;5056560;28;20036;-37
2021/07/24 09:15:41;;;;;;;13.40;7.70;;;26.50;51.70;;;;;;5055750;28;20024;-37
2021/07/24 09:18:06;;;;;;;11.90;8.40;;;26.50;52.60;;;;;;5055699;28;20567;-37
2021/07/24 09:20:34;;;;;;;10.35;8.80;;;26.60;52.10;;;;;;5055329;28;20033;-37
2021/07/24 09:23:23;;;;;;;10.40;7.68;;;26.10;53.20;;;;;;5055835;28;20025;-37
2021/07/24 09:25:49;;;;;;;10.70;8.30;;;25.80;54.00;;;;;;5054940;28;20159;-37
2021/07/24 09:28:14;;;;;;;10.88;7.90;;;26.60;51.90;;;;;;5055458;28;20087;-37
2021/07/24 09:30:40;;;;;;;13.13;7.70;;;26.80;51.70;;;;;;5056355;28;20029;-37
2021/07/24 09:33:08;;;;;;;14.35;8.23;;;26.60;51.90;;;;;;5055757;28;20060;-37
2021/07/24 09:35:38;;;;;;;10.00;7.90;;;26.70;52.30;;;;;;5055748;28;20039;-37
2021/07/24 09:38:11;;;;;;;10.88;8.80;;;27.50;50.40;;;;;;5055878;28;20083;-40
2021/07/24 09:40:38;;;;;;;10.18;8.23;;;28.00;49.00;;;;;;5054242;28;20057;-37
2021/07/24 09:43:24;;;;;;;10.80;8.32;;;28.20;47.90;;;;;;5055549;28;20029;-37
2021/07/24 09:46:20;;;;;;;10.90;8.40;;;28.00;47.90;;;;;;5055504;28;20028;-37
2021/07/24 09:48:47;;;;;;;12.63;8.02;;;27.70;48.50;;;;;;5053778;28;20095;-37
2021/07/24 09:51:13;;;;;;;12.00;9.30;;;28.10;47.70;;;;;;5054954;28;20028;-37
2021/07/24 09:53:40;;;;;;;11.23;9.32;;;28.20;47.10;;;;;;5054999;28;20021;-37
2021/07/24 09:56:10;;;;;;;12.80;8.77;;;28.30;46.60;;;;;;5054654;28;20036;-37
2021/07/24 09:58:38;;;;;;;10.85;9.68;;;27.80;48.00;;;;;;5053757;28;20500;-37
2021/07/24 10:01:12;;;;;;;14.15;8.57;;;27.90;47.50;;;;;;5055142;28;20025;-37
2021/07/24 10:03:39;;;;;;;13.88;9.40;;;28.70;46.00;;;;;;5053649;28;20439;-37
2021/07/24 10:06:12;;;;;;;11.98;9.27;;;28.60;46.20;;;;;;5055059;28;20043;-37
2021/07/24 10:08:40;;;;;;;10.75;9.48;;;28.80;45.70;;;;;;5056355;28;20025;-37
2021/07/24 10:11:06;;;;;;;13.32;8.60;;;29.70;43.90;;;;;;5057429;28;20021;-37
2021/07/24 10:13:32;;;;;;;10.65;8.55;;;29.80;43.60;;;;;;5054496;28;20071;-37
2021/07/24 10:16:00;;;;;;;10.40;8.07;;;30.00;42.80;;;;;;5055119;28;20427;-38
2021/07/24 10:18:26;;;;;;;14.43;8.73;;;29.30;45.00;;;;;;5054767;28;20072;-37
2021/07/24 10:20:52;;;;;;;11.07;8.20;;;29.50;44.00;;;;;;5054619;28;20119;-38
2021/07/24 10:23:23;;;;;;;11.75;8.60;;;30.20;43.10;;;;;;5054450;28;20489;-37
2021/07/24 10:25:49;;;;;;;19.15;10.13;;;30.80;42.00;;;;;;5054419;28;20063;-37
2021/07/24 10:28:22;;;;;;;14.90;9.57;;;30.70;41.90;;;;;;5054243;28;20032;-38
2021/07/24 10:32:25;;;;;;;12.35;10.13;;;30.60;41.90;;;;;;5110670;27;20380;-36
2021/07/24 10:34:52;;;;;;;12.90;9.45;;;30.10;43.00;;;;;;5110118;28;20028;-36
2021/07/24 10:37:42;;;;;;;11.77;8.98;;;30.20;43.10;;;;;;5110615;28;20027;-36
2021/07/24 10:42:48;;;;;;;15.43;9.82;;;29.10;45.10;;;;;;5109773;28;20112;-36
2021/07/24 10:45:36;;;;;;;11.43;9.23;;;28.30;47.20;;;;;;5109965;28;20364;-36
2021/07/24 10:48:14;;;;;;;12.85;10.40;;;28.10;48.20;;;;;;5109816;28;20077;-37
2021/07/24 10:50:57;;;;;;;11.05;9.65;;;28.20;48.10;;;;;;5109865;28;20020;-37
2021/07/24 10:53:46;;;;;;;14.95;9.93;;;28.40;47.20;;;;;;5110268;28;20024;-37
2021/07/24 10:56:36;;;;;;;15.63;10.35;;;28.40;46.90;;;;;;5106034;28;20042;-37
2021/07/24 10:59:16;;;;;;;13.60;9.45;;;28.40;47.10;;;;;;5110310;28;20372;-37
2021/07/24 11:02:14;;;;;;;21.58;9.98;;;28.40;47.20;;;;;;5110012;28;20031;-37
2021/07/24 11:04:46;;;;;;;16.42;10.30;;;28.30;48.00;;;;;;5104750;28;20149;-37
2021/07/24 11:07:21;;;;;;;15.45;11.23;;;28.40;47.90;;;;;;5109799;28;20096;-37
2021/07/24 11:09:52;;;;;;;10.38;9.15;;;28.40;47.60;;;;;;5109479;28;20072;-38
2021/07/24 11:12:32;;;;;;;18.02;10.35;;;28.20;47.60;;;;;;5109375;28;20035;-37
2021/07/24 11:14:58;;;;;;;13.70;10.20;;;27.70;48.60;;;;;;5109576;28;20020;-37
2021/07/24 11:17:24;;;;;;;17.38;10.50;;;27.80;49.10;;;;;;5109679;28;20039;-37
2021/07/24 11:19:50;;;;;;;12.95;10.13;;;27.50;50.30;;;;;;5109169;28;20019;-36
2021/07/24 11:22:23;;;;;;;13.70;9.32;;;26.60;53.20;;;;;;5109425;28;20115;-36
2021/07/24 11:24:51;;;;;;;14.80;10.32;;;26.90;52.70;;;;;;5108893;28;20104;-36
2021/07/24 11:27:26;;;;;;;26.13;10.88;;;26.90;52.70;;;;;;5108862;28;20024;-35
2021/07/24 11:30:07;;;;;;;14.88;11.27;;;26.90;52.30;;;;;;5109843;28;20051;-36
2021/07/24 11:32:40;;;;;;;20.70;10.35;;;26.80;52.80;;;;;;5109483;28;20039;-36
2021/07/24 11:35:11;;;;;;;14.57;12.32;;;26.60;53.40;;;;;;5109058;28;20020;-36
2021/07/24 11:37:43;;;;;;;15.95;10.27;;;26.80;53.30;;;;;;5109011;28;20024;-36
2021/07/24 11:40:13;;;;;;;14.00;11.07;;;26.80;52.40;;;;;;5109269;28;20024;-36
2021/07/24 11:42:44;;;;;;;15.45;10.98;;;26.40;53.70;;;;;;5101125;28;20020;-39
2021/07/24 11:45:18;;;;;;;14.80;11.18;;;26.50;54.10;;;;;;5095214;28;20028;-41
2021/07/24 11:47:44;;;;;;;16.23;12.00;;;26.70;53.50;;;;;;5095274;28;20016;-36
2021/07/24 11:50:20;;;;;;;21.40;11.13;;;26.80;54.00;;;;;;5095279;28;20380;-36
2021/07/24 11:52:51;;;;;;;19.23;12.35;;;26.60;54.60;;;;;;5094744;28;20024;-36
2021/07/24 11:55:27;;;;;;;21.67;13.10;;;26.70;53.80;;;;;;5094824;28;20106;-36
2021/07/24 11:58:14;;;;;;;13.77;11.10;;;26.80;53.90;;;;;;5093535;28;20119;-36
2021/07/24 12:00:45;;;;;;;14.30;11.52;;;26.70;54.70;;;;;;5095002;28;20093;-36
2021/07/24 12:03:22;;;;;;;16.27;10.70;;;26.40;55.30;;;;;;5094784;28;20213;-36
2021/07/24 12:05:52;;;;;;;13.00;10.82;;;26.20;56.10;;;;;;5094898;28;20016;-37
2021/07/24 12:08:29;;;;;;;14.65;11.38;;;26.20;56.50;;;;;;5094664;28;20028;-37
2021/07/24 12:10:55;;;;;;;15.20;11.52;;;26.00;56.40;;;;;;5094750;28;20032;-37
2021/07/24 12:13:23;;;;;;;14.32;10.13;;;25.80;57.70;;;;;;5094886;28;20023;-37
2021/07/24 12:15:57;;;;;;;13.52;10.77;;;25.70;58.00;;;;;;5094640;28;20040;-37
2021/07/24 12:18:23;;;;;;;19.33;11.63;;;25.30;58.70;;;;;;5094848;28;20471;-37
2021/07/24 12:20:49;;;;;;;15.05;10.85;;;25.40;58.50;;;;;;5094756;28;20097;-37
2021/07/24 12:23:33;;;;;;;16.50;11.73;;;25.30;59.00;;;;;;5094289;28;20059;-37
2021/07/24 12:26:09;;;;;;;18.02;11.73;;;25.30;59.00;;;;;;5093696;28;20055;-37
2021/07/24 12:28:36;;;;;;;16.67;11.55;;;25.40;59.10;;;;;;5094353;28;20028;-37
2021/07/24 12:31:28;;;;;;;19.27;11.45;;;25.30;59.00;;;;;;5093933;28;20492;-37
2021/07/24 12:33:59;;;;;;;18.05;12.57;;;25.60;58.10;;;;;;5094823;28;20572;-37
2021/07/24 12:36:25;;;;;;;;;;;25.60;58.30;;;;;;5095678;28;20103;-38
2021/07/24 12:38:52;;;;;;;14.40;11.93;;;25.70;57.80;;;;;;5094828;28;19969;-38
2021/07/24 12:41:31;;;;;;;15.98;13.75;;;25.80;57.30;;;;;;5094737;28;20028;-36
2021/07/24 12:44:09;;;;;;;19.05;11.75;;;25.80;56.60;;;;;;5094389;28;20050;-37
2021/07/24 12:46:36;;;;;;;15.98;11.23;;;25.80;55.90;;;;;;5094196;28;20036;-36